aviador You're here:

LEPA Decoded Metar

PALMA DE MALLORCA in SPAIN
Report Time2017-08-24 06:30:00
UTC Time2017-08-24 07:00:48
Flight Rules vfr VFR
Wind040° at 04 kt
W.Decomp.*RWY 06: 3.7 kt HW 1.4 kt LCW
W.Rank040° ranks 7
Current wind is below 040° avg. (4.8)
Visibility9999 m
Phenomena:N/A
Clouds:Few 025 Hf
Expected CloudBase > 1,200 ft AGL from Temp-Dew spread
CeilingNone
Temp21°C (ISA +6)
Dew Point18°C (83% RH)
QNH1018 hPa
Density Alt837 ft
Elevation26 ft
Report Wrong Elevation
Raw Report
LEPA 240630Z 04004KT 350V080 9999 FEW025 21/18 Q1018 NOSIG=

Extra information for LEPA:More info

Metar Taf Metar & Taf Last 4 Metars F.Rules Stats Wind Profile Meteogram Temp Stats Airport Information Weather charts Add Link Nearby VenuesMetar ALERT Operation Metar Decoded Social comments

Webcam La Seu Palma